sensor_id;sensor_type;location;lat;lon;timestamp;temperature;humidity
1025;DHT22;501;48.214;11.350;2023-02-17T00:02:05;8.90;28.60
1025;DHT22;501;48.214;11.350;2023-02-17T00:04:32;8.90;28.50
1025;DHT22;501;48.214;11.350;2023-02-17T00:06:58;8.90;28.80
1025;DHT22;501;48.214;11.350;2023-02-17T00:09:24;8.90;28.90
1025;DHT22;501;48.214;11.350;2023-02-17T00:11:50;8.90;28.90
1025;DHT22;501;48.214;11.350;2023-02-17T00:14:16;8.90;28.80
1025;DHT22;501;48.214;11.350;2023-02-17T00:16:43;8.90;28.90
1025;DHT22;501;48.214;11.350;2023-02-17T00:19:10;8.80;29.00
1025;DHT22;501;48.214;11.350;2023-02-17T00:21:50;8.80;29.00
1025;DHT22;501;48.214;11.350;2023-02-17T00:24:16;8.80;29.30
1025;DHT22;501;48.214;11.350;2023-02-17T00:26:42;8.80;29.40
1025;DHT22;501;48.214;11.350;2023-02-17T00:29:07;8.80;29.10
1025;DHT22;501;48.214;11.350;2023-02-17T00:31:33;8.80;28.90
1025;DHT22;501;48.214;11.350;2023-02-17T00:33:59;8.80;29.20
1025;DHT22;501;48.214;11.350;2023-02-17T00:36:25;8.70;28.90
1025;DHT22;501;48.214;11.350;2023-02-17T00:38:53;8.70;29.00
1025;DHT22;501;48.214;11.350;2023-02-17T00:41:19;8.70;29.30
1025;DHT22;501;48.214;11.350;2023-02-17T00:43:46;8.70;29.30
1025;DHT22;501;48.214;11.350;2023-02-17T00:46:12;8.60;29.50
1025;DHT22;501;48.214;11.350;2023-02-17T00:48:38;8.60;29.60
1025;DHT22;501;48.214;11.350;2023-02-17T00:51:04;8.60;29.60
1025;DHT22;501;48.214;11.350;2023-02-17T00:53:30;8.50;29.70
1025;DHT22;501;48.214;11.350;2023-02-17T00:55:55;8.50;30.00
1025;DHT22;501;48.214;11.350;2023-02-17T00:58:21;8.40;30.50
1025;DHT22;501;48.214;11.350;2023-02-17T01:00:47;8.40;30.00
1025;DHT22;501;48.214;11.350;2023-02-17T01:03:13;8.30;30.00
1025;DHT22;501;48.214;11.350;2023-02-17T01:05:46;8.30;30.60
1025;DHT22;501;48.214;11.350;2023-02-17T01:08:12;8.20;30.50
1025;DHT22;501;48.214;11.350;2023-02-17T01:10:39;8.20;30.50
1025;DHT22;501;48.214;11.350;2023-02-17T01:13:06;8.10;30.40
1025;DHT22;501;48.214;11.350;2023-02-17T01:15:39;8.10;30.50
1025;DHT22;501;48.214;11.350;2023-02-17T01:18:06;8.10;30.40
1025;DHT22;501;48.214;11.350;2023-02-17T01:20:36;8.00;30.40
1025;DHT22;501;48.214;11.350;2023-02-17T01:23:03;8.00;30.30
1025;DHT22;501;48.214;11.350;2023-02-17T01:25:29;8.00;30.30
1025;DHT22;501;48.214;11.350;2023-02-17T01:27:54;8.00;30.30
1025;DHT22;501;48.214;11.350;2023-02-17T01:30:20;8.00;30.30
1025;DHT22;501;48.214;11.350;2023-02-17T01:32:46;8.00;30.00
1025;DHT22;501;48.214;11.350;2023-02-17T01:35:11;8.00;30.00
1025;DHT22;501;48.214;11.350;2023-02-17T01:37:37;8.00;30.00
1025;DHT22;501;48.214;11.350;2023-02-17T01:40:04;8.00;30.00
1025;DHT22;501;48.214;11.350;2023-02-17T01:42:30;8.00;30.30
1025;DHT22;501;48.214;11.350;2023-02-17T01:47:41;8.00;30.30
1025;DHT22;501;48.214;11.350;2023-02-17T01:50:07;8.00;30.30
1025;DHT22;501;48.214;11.350;2023-02-17T01:52:34;8.00;30.30
1025;DHT22;501;48.214;11.350;2023-02-17T01:55:03;8.00;30.30
1025;DHT22;501;48.214;11.350;2023-02-17T01:57:32;8.00;30.30
1025;DHT22;501;48.214;11.350;2023-02-17T01:59:59;8.00;30.30
1025;DHT22;501;48.214;11.350;2023-02-17T02:02:26;8.10;30.40
1025;DHT22;501;48.214;11.350;2023-02-17T02:04:54;8.10;30.40
1025;DHT22;501;48.214;11.350;2023-02-17T02:07:42;8.00;30.40
1025;DHT22;501;48.214;11.350;2023-02-17T02:10:09;8.10;30.40
1025;DHT22;501;48.214;11.350;2023-02-17T02:12:38;8.10;30.00
1025;DHT22;501;48.214;11.350;2023-02-17T02:15:17;8.10;30.40
1025;DHT22;501;48.214;11.350;2023-02-17T02:34:54;8.20;30.20
1025;DHT22;501;48.214;11.350;2023-02-17T02:37:38;8.20;30.30
1025;DHT22;501;48.214;11.350;2023-02-17T02:40:08;8.30;30.30
1025;DHT22;501;48.214;11.350;2023-02-17T02:42:36;8.30;30.60
1025;DHT22;501;48.214;11.350;2023-02-17T02:45:06;8.30;30.50
1025;DHT22;501;48.214;11.350;2023-02-17T02:47:49;8.30;30.60
1025;DHT22;501;48.214;11.350;2023-02-17T02:50:30;8.40;30.70
1025;DHT22;501;48.214;11.350;2023-02-17T02:56:04;8.50;29.80
1025;DHT22;501;48.214;11.350;2023-02-17T02:58:54;8.50;29.60
1025;DHT22;501;48.214;11.350;2023-02-17T03:01:42;8.60;29.00
1025;DHT22;501;48.214;11.350;2023-02-17T03:07:24;8.60;29.10
1025;DHT22;501;48.214;11.350;2023-02-17T03:09:52;8.70;29.40
1025;DHT22;501;48.214;11.350;2023-02-17T03:12:19;8.70;29.20
1025;DHT22;501;48.214;11.350;2023-02-17T03:14:48;8.70;29.30
1025;DHT22;501;48.214;11.350;2023-02-17T03:17:14;8.70;29.50
1025;DHT22;501;48.214;11.350;2023-02-17T03:19:40;8.80;29.10
1025;DHT22;501;48.214;11.350;2023-02-17T03:22:23;8.80;29.00
1025;DHT22;501;48.214;11.350;2023-02-17T03:24:50;8.80;28.90
1025;DHT22;501;48.214;11.350;2023-02-17T03:27:16;8.80;28.90
1025;DHT22;501;48.214;11.350;2023-02-17T03:29:42;8.90;28.90
1025;DHT22;501;48.214;11.350;2023-02-17T03:32:07;8.90;28.80
1025;DHT22;501;48.214;11.350;2023-02-17T03:34:33;8.90;28.70
1025;DHT22;501;48.214;11.350;2023-02-17T03:36:59;9.00;28.90
1025;DHT22;501;48.214;11.350;2023-02-17T03:39:24;9.00;28.60
1025;DHT22;501;48.214;11.350;2023-02-17T03:41:50;9.00;28.80
1025;DHT22;501;48.214;11.350;2023-02-17T03:44:17;9.00;28.30
1025;DHT22;501;48.214;11.350;2023-02-17T03:46:43;9.00;28.30
1025;DHT22;501;48.214;11.350;2023-02-17T03:49:09;9.10;28.10
1025;DHT22;501;48.214;11.350;2023-02-17T03:51:35;9.20;27.80
1025;DHT22;501;48.214;11.350;2023-02-17T03:54:00;9.20;27.80
1025;DHT22;501;48.214;11.350;2023-02-17T03:56:26;9.20;27.70
1025;DHT22;501;48.214;11.350;2023-02-17T03:58:52;9.30;27.50
1025;DHT22;501;48.214;11.350;2023-02-17T04:01:18;9.30;27.70
1025;DHT22;501;48.214;11.350;2023-02-17T04:03:44;9.30;27.50
1025;DHT22;501;48.214;11.350;2023-02-17T04:06:10;9.40;27.30
1025;DHT22;501;48.214;11.350;2023-02-17T04:08:36;9.50;27.80
1025;DHT22;501;48.214;11.350;2023-02-17T04:11:04;9.50;27.20
1025;DHT22;501;48.214;11.350;2023-02-17T04:13:31;9.60;26.80
1025;DHT22;501;48.214;11.350;2023-02-17T04:15:57;9.60;27.00
1025;DHT22;501;48.214;11.350;2023-02-17T04:18:23;9.60;26.60
1025;DHT22;501;48.214;11.350;2023-02-17T04:20:50;9.70;26.90
1025;DHT22;501;48.214;11.350;2023-02-17T04:23:16;9.70;26.60
1025;DHT22;501;48.214;11.350;2023-02-17T04:25:42;9.70;26.80
1025;DHT22;501;48.214;11.350;2023-02-17T04:28:09;9.80;26.70
1025;DHT22;501;48.214;11.350;2023-02-17T04:30:34;9.80;26.40
1025;DHT22;501;48.214;11.350;2023-02-17T04:33:01;9.90;26.50
1025;DHT22;501;48.214;11.350;2023-02-17T04:35:26;9.90;26.50
1025;DHT22;501;48.214;11.350;2023-02-17T04:37:53;9.90;26.40
1025;DHT22;501;48.214;11.350;2023-02-17T04:40:19;9.90;26.80
1025;DHT22;501;48.214;11.350;2023-02-17T04:42:45;9.90;26.70
1025;DHT22;501;48.214;11.350;2023-02-17T04:45:11;9.90;26.10
1025;DHT22;501;48.214;11.350;2023-02-17T04:47:37;9.90;26.00
1025;DHT22;501;48.214;11.350;2023-02-17T04:50:03;10.00;25.70
1025;DHT22;501;48.214;11.350;2023-02-17T04:52:29;10.00;25.90
1025;DHT22;501;48.214;11.350;2023-02-17T04:54:54;9.90;26.50
1025;DHT22;501;48.214;11.350;2023-02-17T04:57:20;9.90;26.50
1025;DHT22;501;48.214;11.350;2023-02-17T04:59:45;9.90;26.70
1025;DHT22;501;48.214;11.350;2023-02-17T05:02:11;9.90;26.30
1025;DHT22;501;48.214;11.350;2023-02-17T05:04:37;9.90;26.70
1025;DHT22;501;48.214;11.350;2023-02-17T05:07:02;9.90;26.70
1025;DHT22;501;48.214;11.350;2023-02-17T05:09:28;9.90;26.90
1025;DHT22;501;48.214;11.350;2023-02-17T05:11:54;9.90;27.40
1025;DHT22;501;48.214;11.350;2023-02-17T05:14:19;9.90;27.10
1025;DHT22;501;48.214;11.350;2023-02-17T05:16:45;9.90;27.30
1025;DHT22;501;48.214;11.350;2023-02-17T05:19:11;9.90;27.60
1025;DHT22;501;48.214;11.350;2023-02-17T05:21:37;9.90;28.00
1025;DHT22;501;48.214;11.350;2023-02-17T05:24:03;9.90;27.80
1025;DHT22;501;48.214;11.350;2023-02-17T05:26:28;9.90;27.80
1025;DHT22;501;48.214;11.350;2023-02-17T05:28:54;10.00;27.50
1025;DHT22;501;48.214;11.350;2023-02-17T05:31:20;10.00;27.20
1025;DHT22;501;48.214;11.350;2023-02-17T05:33:45;10.00;27.20
1025;DHT22;501;48.214;11.350;2023-02-17T05:36:11;10.00;27.40
1025;DHT22;501;48.214;11.350;2023-02-17T05:38:38;10.00;27.50
1025;DHT22;501;48.214;11.350;2023-02-17T05:41:04;10.00;27.60
1025;DHT22;501;48.214;11.350;2023-02-17T05:43:30;10.00;28.20
1025;DHT22;501;48.214;11.350;2023-02-17T05:46:01;10.00;28.00
1025;DHT22;501;48.214;11.350;2023-02-17T05:48:26;10.00;28.10
1025;DHT22;501;48.214;11.350;2023-02-17T05:50:52;10.00;28.10
1025;DHT22;501;48.214;11.350;2023-02-17T05:53:17;10.00;28.10
1025;DHT22;501;48.214;11.350;2023-02-17T05:55:43;10.10;28.00
1025;DHT22;501;48.214;11.350;2023-02-17T05:58:09;10.10;28.50
1025;DHT22;501;48.214;11.350;2023-02-17T06:00:34;10.10;28.70
1025;DHT22;501;48.214;11.350;2023-02-17T06:03:00;10.10;28.70
1025;DHT22;501;48.214;11.350;2023-02-17T06:05:25;10.10;28.90
1025;DHT22;501;48.214;11.350;2023-02-17T06:07:51;10.20;30.00
1025;DHT22;501;48.214;11.350;2023-02-17T06:10:17;10.20;30.70
1025;DHT22;501;48.214;11.350;2023-02-17T06:12:42;10.20;33.30
1025;DHT22;501;48.214;11.350;2023-02-17T06:15:08;10.10;34.40
1025;DHT22;501;48.214;11.350;2023-02-17T06:17:34;10.00;35.90
1025;DHT22;501;48.214;11.350;2023-02-17T06:19:59;9.90;37.30
1025;DHT22;501;48.214;11.350;2023-02-17T06:22:25;9.80;39.60
1025;DHT22;501;48.214;11.350;2023-02-17T06:24:51;9.70;38.90
1025;DHT22;501;48.214;11.350;2023-02-17T06:27:16;9.60;39.30
1025;DHT22;501;48.214;11.350;2023-02-17T06:29:43;9.50;40.70
1025;DHT22;501;48.214;11.350;2023-02-17T06:32:09;9.50;39.90
1025;DHT22;501;48.214;11.350;2023-02-17T06:34:34;9.40;39.10
1025;DHT22;501;48.214;11.350;2023-02-17T06:37:00;9.40;38.70
1025;DHT22;501;48.214;11.350;2023-02-17T06:39:25;9.40;39.00
1025;DHT22;501;48.214;11.350;2023-02-17T06:41:51;9.40;38.40
1025;DHT22;501;48.214;11.350;2023-02-17T06:44:17;9.40;38.40
1025;DHT22;501;48.214;11.350;2023-02-17T06:46:42;9.40;36.70
1025;DHT22;501;48.214;11.350;2023-02-17T06:49:11;9.50;36.70
1025;DHT22;501;48.214;11.350;2023-02-17T06:51:36;9.50;36.90
1025;DHT22;501;48.214;11.350;2023-02-17T06:54:02;9.60;36.70
1025;DHT22;501;48.214;11.350;2023-02-17T06:56:27;9.60;37.00
1025;DHT22;501;48.214;11.350;2023-02-17T06:58:53;9.70;37.50
1025;DHT22;501;48.214;11.350;2023-02-17T07:01:24;9.70;38.70
1025;DHT22;501;48.214;11.350;2023-02-17T07:03:54;9.70;37.10
1025;DHT22;501;48.214;11.350;2023-02-17T07:06:20;9.80;37.20
1025;DHT22;501;48.214;11.350;2023-02-17T07:08:46;9.80;37.20
1025;DHT22;501;48.214;11.350;2023-02-17T07:11:13;9.80;37.20
1025;DHT22;501;48.214;11.350;2023-02-17T07:13:39;9.90;37.30
1025;DHT22;501;48.214;11.350;2023-02-17T07:16:08;9.90;36.50
1025;DHT22;501;48.214;11.350;2023-02-17T07:18:35;9.90;36.80
1025;DHT22;501;48.214;11.350;2023-02-17T07:21:03;10.00;36.00
1025;DHT22;501;48.214;11.350;2023-02-17T07:23:29;10.10;34.90
1025;DHT22;501;48.214;11.350;2023-02-17T07:25:54;10.20;34.90
1025;DHT22;501;48.214;11.350;2023-02-17T07:28:20;10.30;34.60
1025;DHT22;501;48.214;11.350;2023-02-17T07:30:46;10.30;34.60
1025;DHT22;501;48.214;11.350;2023-02-17T07:33:11;10.40;34.30
1025;DHT22;501;48.214;11.350;2023-02-17T07:35:41;10.40;34.30
1025;DHT22;501;48.214;11.350;2023-02-17T07:38:08;10.40;34.80
1025;DHT22;501;48.214;11.350;2023-02-17T07:40:34;10.50;34.40
1025;DHT22;501;48.214;11.350;2023-02-17T07:43:00;10.50;34.90
1025;DHT22;501;48.214;11.350;2023-02-17T07:45:25;10.50;33.90
1025;DHT22;501;48.214;11.350;2023-02-17T07:47:51;10.50;34.60
1025;DHT22;501;48.214;11.350;2023-02-17T07:50:17;10.50;34.30
1025;DHT22;501;48.214;11.350;2023-02-17T07:52:43;10.60;34.80
1025;DHT22;501;48.214;11.350;2023-02-17T07:55:08;10.50;35.50
1025;DHT22;501;48.214;11.350;2023-02-17T07:57:34;10.60;35.10
1025;DHT22;501;48.214;11.350;2023-02-17T08:00:00;10.50;35.10
1025;DHT22;501;48.214;11.350;2023-02-17T08:02:25;10.50;34.20
1025;DHT22;501;48.214;11.350;2023-02-17T08:04:51;10.50;34.80
1025;DHT22;501;48.214;11.350;2023-02-17T08:07:17;10.50;35.00
1025;DHT22;501;48.214;11.350;2023-02-17T08:09:43;10.50;35.00
1025;DHT22;501;48.214;11.350;2023-02-17T08:12:27;10.50;35.50
1025;DHT22;501;48.214;11.350;2023-02-17T08:15:12;10.50;36.00
1025;DHT22;501;48.214;11.350;2023-02-17T08:17:37;10.50;36.80
1025;DHT22;501;48.214;11.350;2023-02-17T08:20:05;10.50;37.80
1025;DHT22;501;48.214;11.350;2023-02-17T08:22:31;10.40;40.50
1025;DHT22;501;48.214;11.350;2023-02-17T08:24:57;10.30;39.60
1025;DHT22;501;48.214;11.350;2023-02-17T08:27:22;10.30;40.50
1025;DHT22;501;48.214;11.350;2023-02-17T08:29:48;10.20;40.30
1025;DHT22;501;48.214;11.350;2023-02-17T08:32:15;10.20;38.50
1025;DHT22;501;48.214;11.350;2023-02-17T08:34:41;10.20;38.40
1025;DHT22;501;48.214;11.350;2023-02-17T08:37:08;10.30;37.60
1025;DHT22;501;48.214;11.350;2023-02-17T08:39:34;10.30;37.50
1025;DHT22;501;48.214;11.350;2023-02-17T08:42:01;10.30;36.70
1025;DHT22;501;48.214;11.350;2023-02-17T08:44:27;10.30;38.60
1025;DHT22;501;48.214;11.350;2023-02-17T08:46:53;10.40;39.50
1025;DHT22;501;48.214;11.350;2023-02-17T08:49:24;10.30;40.40
1025;DHT22;501;48.214;11.350;2023-02-17T08:51:50;10.30;40.40
1025;DHT22;501;48.214;11.350;2023-02-17T08:54:16;10.30;40.40
1025;DHT22;501;48.214;11.350;2023-02-17T08:56:42;10.30;40.40
1025;DHT22;501;48.214;11.350;2023-02-17T08:59:09;10.20;40.90
1025;DHT22;501;48.214;11.350;2023-02-17T09:01:36;10.10;41.80
1025;DHT22;501;48.214;11.350;2023-02-17T09:04:03;10.10;40.40
1025;DHT22;501;48.214;11.350;2023-02-17T09:08:58;10.20;40.30
1025;DHT22;501;48.214;11.350;2023-02-17T09:11:24;10.20;40.30
1025;DHT22;501;48.214;11.350;2023-02-17T09:13:50;10.30;40.30
1025;DHT22;501;48.214;11.350;2023-02-17T09:16:15;10.30;39.30
1025;DHT22;501;48.214;11.350;2023-02-17T09:18:43;10.40;40.30
1025;DHT22;501;48.214;11.350;2023-02-17T09:21:11;10.50;39.30
1025;DHT22;501;48.214;11.350;2023-02-17T09:23:36;10.50;39.00
1025;DHT22;501;48.214;11.350;2023-02-17T09:26:11;10.60;39.00
1025;DHT22;501;48.214;11.350;2023-02-17T09:28:38;10.70;38.60
1025;DHT22;501;48.214;11.350;2023-02-17T09:31:16;10.70;38.10
1025;DHT22;501;48.214;11.350;2023-02-17T09:33:42;10.70;39.00
1025;DHT22;501;48.214;11.350;2023-02-17T09:36:09;10.80;38.20
1025;DHT22;501;48.214;11.350;2023-02-17T09:38:38;10.80;38.40
1025;DHT22;501;48.214;11.350;2023-02-17T09:41:24;10.90;38.00
1025;DHT22;501;48.214;11.350;2023-02-17T09:43:52;11.00;37.10
1025;DHT22;501;48.214;11.350;2023-02-17T09:47:01;11.10;37.30
1025;DHT22;501;48.214;11.350;2023-02-17T09:49:11;11.20;37.30
1025;DHT22;501;48.214;11.350;2023-02-17T09:55:02;11.50;36.40
1025;DHT22;501;48.214;11.350;2023-02-17T09:57:32;11.60;36.00
1025;DHT22;501;48.214;11.350;2023-02-17T10:00:23;11.70;35.90
1025;DHT22;501;48.214;11.350;2023-02-17T10:03:01;11.80;35.10
1025;DHT22;501;48.214;11.350;2023-02-17T10:05:34;11.80;35.20
1025;DHT22;501;48.214;11.350;2023-02-17T10:08:21;11.90;35.10
1025;DHT22;501;48.214;11.350;2023-02-17T10:13:40;12.00;35.40
1025;DHT22;501;48.214;11.350;2023-02-17T10:16:10;12.10;34.10
1025;DHT22;501;48.214;11.350;2023-02-17T10:18:49;12.20;34.30
1025;DHT22;501;48.214;11.350;2023-02-17T10:21:19;12.40;33.90
1025;DHT22;501;48.214;11.350;2023-02-17T10:23:48;12.40;33.20
1025;DHT22;501;48.214;11.350;2023-02-17T10:26:24;12.50;33.30
1025;DHT22;501;48.214;11.350;2023-02-17T10:29:04;12.50;33.40
1025;DHT22;501;48.214;11.350;2023-02-17T10:34:25;12.60;33.90
1025;DHT22;501;48.214;11.350;2023-02-17T10:39:49;12.70;31.40
1025;DHT22;501;48.214;11.350;2023-02-17T10:42:30;12.70;32.10
1025;DHT22;501;48.214;11.350;2023-02-17T10:45:02;12.80;31.60
1025;DHT22;501;48.214;11.350;2023-02-17T10:47:29;12.90;31.40
1025;DHT22;501;48.214;11.350;2023-02-17T10:49:56;12.90;30.80
1025;DHT22;501;48.214;11.350;2023-02-17T10:52:37;13.00;31.70
1025;DHT22;501;48.214;11.350;2023-02-17T10:55:18;13.10;30.70
1025;DHT22;501;48.214;11.350;2023-02-17T10:57:47;13.20;31.20
1025;DHT22;501;48.214;11.350;2023-02-17T11:00:16;13.30;30.80
1025;DHT22;501;48.214;11.350;2023-02-17T11:02:45;13.30;31.90
1025;DHT22;501;48.214;11.350;2023-02-17T11:05:40;13.40;30.70
1025;DHT22;501;48.214;11.350;2023-02-17T11:08:42;13.40;30.40
1025;DHT22;501;48.214;11.350;2023-02-17T11:11:16;13.40;29.90
1025;DHT22;501;48.214;11.350;2023-02-17T11:13:45;13.40;30.40
1025;DHT22;501;48.214;11.350;2023-02-17T11:19:04;13.50;30.70
1025;DHT22;501;48.214;11.350;2023-02-17T11:21:30;13.60;30.50
1025;DHT22;501;48.214;11.350;2023-02-17T11:23:59;13.70;30.30
1025;DHT22;501;48.214;11.350;2023-02-17T11:26:28;13.70;30.00
1025;DHT22;501;48.214;11.350;2023-02-17T11:29:26;13.70;29.90
1025;DHT22;501;48.214;11.350;2023-02-17T11:31:58;13.70;29.70
1025;DHT22;501;48.214;11.350;2023-02-17T11:34:27;13.60;29.90
1025;DHT22;501;48.214;11.350;2023-02-17T11:39:42;13.60;30.60
1025;DHT22;501;48.214;11.350;2023-02-17T11:42:25;13.60;30.90
1025;DHT22;501;48.214;11.350;2023-02-17T11:44:53;13.60;31.00
1025;DHT22;501;48.214;11.350;2023-02-17T11:50:01;13.60;30.60
1025;DHT22;501;48.214;11.350;2023-02-17T11:52:42;13.60;30.00
1025;DHT22;501;48.214;11.350;2023-02-17T11:58:10;13.60;30.60
1025;DHT22;501;48.214;11.350;2023-02-17T12:01:05;13.60;30.20
1025;DHT22;501;48.214;11.350;2023-02-17T12:20:32;13.70;30.80
1025;DHT22;501;48.214;11.350;2023-02-17T12:25:53;13.80;31.40
1025;DHT22;501;48.214;11.350;2023-02-17T12:33:57;13.80;31.10
1025;DHT22;501;48.214;11.350;2023-02-17T12:36:37;13.80;31.90
1025;DHT22;501;48.214;11.350;2023-02-17T12:39:14;13.70;32.60
1025;DHT22;501;48.214;11.350;2023-02-17T12:44:40;13.80;33.00
1025;DHT22;501;48.214;11.350;2023-02-17T12:47:30;13.80;32.70
1025;DHT22;501;48.214;11.350;2023-02-17T12:50:01;13.80;31.90
1025;DHT22;501;48.214;11.350;2023-02-17T12:52:36;13.80;32.20
1025;DHT22;501;48.214;11.350;2023-02-17T12:55:17;13.80;31.90
1025;DHT22;501;48.214;11.350;2023-02-17T12:58:28;13.80;32.20
1025;DHT22;501;48.214;11.350;2023-02-17T13:01:03;13.80;32.20
1025;DHT22;501;48.214;11.350;2023-02-17T13:03:31;13.80;32.90
1025;DHT22;501;48.214;11.350;2023-02-17T13:06:20;13.70;33.10
1025;DHT22;501;48.214;11.350;2023-02-17T13:09:02;13.70;33.00
1025;DHT22;501;48.214;11.350;2023-02-17T13:11:33;13.60;33.50
1025;DHT22;501;48.214;11.350;2023-02-17T13:14:26;13.50;33.60
1025;DHT22;501;48.214;11.350;2023-02-17T13:16:52;13.50;34.20
1025;DHT22;501;48.214;11.350;2023-02-17T13:19:29;13.40;34.10
1025;DHT22;501;48.214;11.350;2023-02-17T13:21:57;13.40;34.10
1025;DHT22;501;48.214;11.350;2023-02-17T13:24:34;13.30;34.10
1025;DHT22;501;48.214;11.350;2023-02-17T13:27:19;13.30;34.10
1025;DHT22;501;48.214;11.350;2023-02-17T13:29:45;13.20;34.50
1025;DHT22;501;48.214;11.350;2023-02-17T13:32:11;13.20;34.40
1025;DHT22;501;48.214;11.350;2023-02-17T13:34:39;13.20;34.00
1025;DHT22;501;48.214;11.350;2023-02-17T13:39:56;13.20;33.90
1025;DHT22;501;48.214;11.350;2023-02-17T13:42:37;13.20;33.90
1025;DHT22;501;48.214;11.350;2023-02-17T13:45:26;13.20;34.00
1025;DHT22;501;48.214;11.350;2023-02-17T13:47:54;13.20;34.00
1025;DHT22;501;48.214;11.350;2023-02-17T13:50:41;13.20;34.00
1025;DHT22;501;48.214;11.350;2023-02-17T13:53:35;13.20;34.00
1025;DHT22;501;48.214;11.350;2023-02-17T13:56:11;13.10;33.80
1025;DHT22;501;48.214;11.350;2023-02-17T13:58:48;13.20;34.00
1025;DHT22;501;48.214;11.350;2023-02-17T14:01:17;13.20;34.00
1025;DHT22;501;48.214;11.350;2023-02-17T14:03:49;13.20;34.00
1025;DHT22;501;48.214;11.350;2023-02-17T14:06:35;13.20;34.00
1025;DHT22;501;48.214;11.350;2023-02-17T14:09:23;13.20;34.00
1025;DHT22;501;48.214;11.350;2023-02-17T14:11:49;13.20;34.00
1025;DHT22;501;48.214;11.350;2023-02-17T14:14:16;13.20;34.00
1025;DHT22;501;48.214;11.350;2023-02-17T14:16:43;13.20;34.00
1025;DHT22;501;48.214;11.350;2023-02-17T14:19:14;13.20;34.60
1025;DHT22;501;48.214;11.350;2023-02-17T14:22:05;13.20;34.20
1025;DHT22;501;48.214;11.350;2023-02-17T14:24:34;13.20;35.00
1025;DHT22;501;48.214;11.350;2023-02-17T14:27:08;13.10;34.50
1025;DHT22;501;48.214;11.350;2023-02-17T14:29:56;13.10;34.90
1025;DHT22;501;48.214;11.350;2023-02-17T14:32:30;13.00;34.90
1025;DHT22;501;48.214;11.350;2023-02-17T14:35:29;13.00;34.80
1025;DHT22;501;48.214;11.350;2023-02-17T14:38:09;13.00;35.40
1025;DHT22;501;48.214;11.350;2023-02-17T14:40:43;13.00;35.40
1025;DHT22;501;48.214;11.350;2023-02-17T14:43:09;13.00;34.80
1025;DHT22;501;48.214;11.350;2023-02-17T14:45:35;13.00;35.20
1025;DHT22;501;48.214;11.350;2023-02-17T14:48:00;12.90;35.20
1025;DHT22;501;48.214;11.350;2023-02-17T14:50:26;12.90;35.30
1025;DHT22;501;48.214;11.350;2023-02-17T14:52:52;12.90;35.40
1025;DHT22;501;48.214;11.350;2023-02-17T14:55:34;12.90;35.10
1025;DHT22;501;48.214;11.350;2023-02-17T14:58:00;12.90;35.30
1025;DHT22;501;48.214;11.350;2023-02-17T15:00:26;12.80;34.80
1025;DHT22;501;48.214;11.350;2023-02-17T15:02:52;12.80;35.10
1025;DHT22;501;48.214;11.350;2023-02-17T15:05:18;12.80;35.60
1025;DHT22;501;48.214;11.350;2023-02-17T15:07:44;12.80;35.80
1025;DHT22;501;48.214;11.350;2023-02-17T15:10:24;12.80;35.40
1025;DHT22;501;48.214;11.350;2023-02-17T15:12:50;12.70;35.40
1025;DHT22;501;48.214;11.350;2023-02-17T15:15:16;12.70;35.70
1025;DHT22;501;48.214;11.350;2023-02-17T15:17:43;12.70;35.40
1025;DHT22;501;48.214;11.350;2023-02-17T15:20:09;12.70;35.30
1025;DHT22;501;48.214;11.350;2023-02-17T15:22:35;12.70;35.40
1025;DHT22;501;48.214;11.350;2023-02-17T15:25:26;12.70;35.60
1025;DHT22;501;48.214;11.350;2023-02-17T15:27:56;12.70;35.30
1025;DHT22;501;48.214;11.350;2023-02-17T15:30:21;12.70;35.50
1025;DHT22;501;48.214;11.350;2023-02-17T15:32:47;12.80;36.70
1025;DHT22;501;48.214;11.350;2023-02-17T15:35:25;12.70;37.00
1025;DHT22;501;48.214;11.350;2023-02-17T15:37:51;12.70;36.50
1025;DHT22;501;48.214;11.350;2023-02-17T15:40:23;12.70;37.10
1025;DHT22;501;48.214;11.350;2023-02-17T15:42:53;12.70;36.50
1025;DHT22;501;48.214;11.350;2023-02-17T15:45:20;12.70;36.40
1025;DHT22;501;48.214;11.350;2023-02-17T15:47:47;12.70;36.30
1025;DHT22;501;48.214;11.350;2023-02-17T15:50:19;12.70;36.40
1025;DHT22;501;48.214;11.350;2023-02-17T15:52:47;12.70;36.40
1025;DHT22;501;48.214;11.350;2023-02-17T15:55:13;12.70;36.80
1025;DHT22;501;48.214;11.350;2023-02-17T15:57:43;12.70;36.40
1025;DHT22;501;48.214;11.350;2023-02-17T16:02:45;12.60;36.90
1025;DHT22;501;48.214;11.350;2023-02-17T16:05:12;12.60;37.60
1025;DHT22;501;48.214;11.350;2023-02-17T16:07:38;12.60;38.00
1025;DHT22;501;48.214;11.350;2023-02-17T16:10:04;12.50;38.20
1025;DHT22;501;48.214;11.350;2023-02-17T16:12:31;12.50;38.30
1025;DHT22;501;48.214;11.350;2023-02-17T16:14:57;12.40;39.00
1025;DHT22;501;48.214;11.350;2023-02-17T16:17:22;12.40;39.10
1025;DHT22;501;48.214;11.350;2023-02-17T16:19:49;12.40;38.50
1025;DHT22;501;48.214;11.350;2023-02-17T16:22:14;12.40;39.00
1025;DHT22;501;48.214;11.350;2023-02-17T16:24:40;12.40;38.40
1025;DHT22;501;48.214;11.350;2023-02-17T16:27:09;12.30;38.60
1025;DHT22;501;48.214;11.350;2023-02-17T16:29:36;12.30;38.60
1025;DHT22;501;48.214;11.350;2023-02-17T16:32:02;12.20;38.90
1025;DHT22;501;48.214;11.350;2023-02-17T16:34:27;12.20;39.10
1025;DHT22;501;48.214;11.350;2023-02-17T16:36:59;12.20;39.40
1025;DHT22;501;48.214;11.350;2023-02-17T16:39:25;12.10;39.60
1025;DHT22;501;48.214;11.350;2023-02-17T16:41:51;12.00;39.70
1025;DHT22;501;48.214;11.350;2023-02-17T16:44:19;12.00;39.80
1025;DHT22;501;48.214;11.350;2023-02-17T16:46:48;12.00;40.00
1025;DHT22;501;48.214;11.350;2023-02-17T16:49:23;11.90;39.80
1025;DHT22;501;48.214;11.350;2023-02-17T16:51:52;11.90;39.60
1025;DHT22;501;48.214;11.350;2023-02-17T16:54:18;11.90;39.60
1025;DHT22;501;48.214;11.350;2023-02-17T16:56:46;11.90;39.50
1025;DHT22;501;48.214;11.350;2023-02-17T16:59:17;11.90;39.10
1025;DHT22;501;48.214;11.350;2023-02-17T17:01:44;11.90;39.40
1025;DHT22;501;48.214;11.350;2023-02-17T17:04:10;11.80;39.40
1025;DHT22;501;48.214;11.350;2023-02-17T17:06:37;11.80;39.00
1025;DHT22;501;48.214;11.350;2023-02-17T17:09:06;11.80;38.90
1025;DHT22;501;48.214;11.350;2023-02-17T17:11:32;11.80;38.70
1025;DHT22;501;48.214;11.350;2023-02-17T17:13:57;11.80;38.60
1025;DHT22;501;48.214;11.350;2023-02-17T17:16:31;11.70;38.50
1025;DHT22;501;48.214;11.350;2023-02-17T17:18:59;11.70;38.70
1025;DHT22;501;48.214;11.350;2023-02-17T17:21:26;11.70;38.20
1025;DHT22;501;48.214;11.350;2023-02-17T17:23:52;11.70;38.50
1025;DHT22;501;48.214;11.350;2023-02-17T17:26:47;11.70;38.20
1025;DHT22;501;48.214;11.350;2023-02-17T17:29:16;11.80;38.00
1025;DHT22;501;48.214;11.350;2023-02-17T17:31:42;11.80;38.20
1025;DHT22;501;48.214;11.350;2023-02-17T17:34:07;11.70;38.20
1025;DHT22;501;48.214;11.350;2023-02-17T17:36:37;11.70;38.30
1025;DHT22;501;48.214;11.350;2023-02-17T17:39:05;11.70;38.50
1025;DHT22;501;48.214;11.350;2023-02-17T17:41:31;11.60;38.40
1025;DHT22;501;48.214;11.350;2023-02-17T17:43:57;11.60;38.60
1025;DHT22;501;48.214;11.350;2023-02-17T17:46:28;11.60;38.50
1025;DHT22;501;48.214;11.350;2023-02-17T17:48:55;11.50;38.60